Weather at Eagle Field

Public forecast

Using degrees Fahrenheit for public forecast. Weather courtesy of forecast.io.

Closest aviation weather report (METAR) to Eagle Field

Closest report is University Park Airport, 6.5 nm (12.0 km) ENE. Retrieved 2020/11/24 05:15 UTC (13 minutes ago):

KUNV 240515Z AUTO 27005KT 10SM OVC050 03/M02 A3024 RMK AO2 T00251020

Closest aviation forecast (TAF) to Eagle Field

Closest forecast is University Park Airport, 6.5 nm (12.0 km) ENE. Retrieved 2020-11-24 00:51 UTC (5 hours ago):

TAF KUNV 232320Z 2400/2424 29008G14KT P6SM SCT035 BKN060 FM240300 29008KT P6SM SCT035 FM240900 30005KT P6SM FEW025 FM241700 33004KT P6SM SCT100